City Of Vicksburg — WDC2660 — position and weather

sailwx.info

Track history (hours):
 
Tides and Currents Weather Stations Pressure Air Temp Water Temp Dewpoint Dewpoint Depression Visibility Wind Speed Wind Dir Waves Ship Positions

City Of Vicksburg

Owner: Kirby Inland Marine LP, Houston, TX. More information available from US FCC via Universal Licensing System and Coast Guard Vessel Documentation Center.

Last reported at 2017-Jun-22 11:30 UTC. Time now 2017-Jun-27 12:07 UTC.
Position N 32°40' W 091°08'.

Length 402 m; draft 2.9 m.

Type: . MMSI: 366996120.

Date/timePositionNaut miles runAvg speedWind from/ knotsBaromVisibWave heightAir tempDewpointWater temp
2017-Jun-22 11:30N 32°40' W 091°08'2 4.6
2017-Jun-22 11:00N 32°38' W 091°09'2 4.3
2017-Jun-22 10:30N 32°36' W 091°09'2 4.9
2017-Jun-22 10:01N 32°34' W 091°07'2 4.6
2017-Jun-22 09:31N 32°32' W 091°06'3 5.2
2017-Jun-22 09:01N 32°30' W 091°07'2 4.7
2017-Jun-22 08:30N 32°28' W 091°06'3 5.2
2017-Jun-22 08:01N 32°26' W 091°03'3 5.1
2017-Jun-22 07:31N 32°25' W 091°00'2 4.4
2017-Jun-22 07:00N 32°23' W 090°60'2 4.1
2017-Jun-22 06:31N 32°21' W 090°60'1 2.9
2017-Jun-22 06:01N 32°21' W 090°58'0 0.5
2017-Jun-22 05:30N 32°21' W 090°58'2 3.8
2017-Jun-22 05:00N 32°21' W 090°55'2 3.8
2017-Jun-22 04:31N 32°19' W 090°54'2 3.2
2017-Jun-22 04:01N 32°18' W 090°56'1 1.4
2017-Jun-22 03:30N 32°17' W 090°56'2 4.7
2017-Jun-22 03:01N 32°16' W 090°58'2 3.5
2017-Jun-22 02:31N 32°14' W 090°59'2 4.8
2017-Jun-22 02:01N 32°12' W 090°60'2 4.5
2017-Jun-22 01:31N 32°09' W 091°00'2 4.6
2017-Jun-22 01:01N 32°07' W 091°01'2 4.2
2017-Jun-22 00:30N 32°08' W 091°04'2 3.1
2017-Jun-22 00:01N 32°08' W 091°06'2 3.8
2017-Jun-21 23:31N 32°06' W 091°06'3 5.1
2017-Jun-21 23:01N 32°04' W 091°04'2 4.5
2017-Jun-21 22:30N 32°02' W 091°04'7 4.6
2017-Jun-21 20:54N 31°58' W 091°11'  
2017-Jun-16 18:27N 31°58' W 091°11'5 8.4
2017-Jun-16 17:48N 31°60' W 091°05'3 9.7
2017-Jun-16 17:27N 32°03' W 091°03'4 8.3
2017-Jun-16 17:00N 32°06' W 091°06'2 4.8
2017-Jun-16 16:30N 32°08' W 091°04'4 7.2
2017-Jun-16 16:00N 32°09' W 091°00'5 9.6
2017-Jun-16 15:30N 32°14' W 090°59'5 9.1
2017-Jun-16 15:00N 32°18' W 090°56'3 6.4
2017-Jun-16 14:30N 32°21' W 090°56'7 7.4
2017-Jun-16 13:30N 32°26' W 091°02'5 9.6
2017-Jun-16 13:00N 32°29' W 091°07'5 9.4
2017-Jun-16 12:30N 32°34' W 091°06'6 8.3
2017-Jun-16 11:45N 32°39' W 091°09'  
Track history (hours):
 
Tides and Currents Weather Stations Pressure Air Temp Water Temp Dewpoint Dewpoint Depression Visibility Wind Speed Wind Dir Waves Ship Positions

City Of Vicksburg

Owner: Kirby Inland Marine LP, Houston, TX. More information available from US FCC via Universal Licensing System and Coast Guard Vessel Documentation Center.

Last reported at 2017-Jun-22 11:30 UTC. Time now 2017-Jun-27 12:07 UTC.
Position N 32°40' W 091°08'.

Length 402 m; draft 2.9 m.

Type: . MMSI: 366996120.

Date/timePositionNaut miles runAvg speedWind from/ knotsBaromVisibWave heightAir tempDewpointWater temp
2017-Jun-22 11:30N 32°40' W 091°08'2 4.6
2017-Jun-22 11:00N 32°38' W 091°09'2 4.3
2017-Jun-22 10:30N 32°36' W 091°09'2 4.9
2017-Jun-22 10:01N 32°34' W 091°07'2 4.6
2017-Jun-22 09:31N 32°32' W 091°06'3 5.2
2017-Jun-22 09:01N 32°30' W 091°07'2 4.7
2017-Jun-22 08:30N 32°28' W 091°06'3 5.2
2017-Jun-22 08:01N 32°26' W 091°03'3 5.1
2017-Jun-22 07:31N 32°25' W 091°00'2 4.4
2017-Jun-22 07:00N 32°23' W 090°60'2 4.1
2017-Jun-22 06:31N 32°21' W 090°60'1 2.9
2017-Jun-22 06:01N 32°21' W 090°58'0 0.5
2017-Jun-22 05:30N 32°21' W 090°58'2 3.8
2017-Jun-22 05:00N 32°21' W 090°55'2 3.8
2017-Jun-22 04:31N 32°19' W 090°54'2 3.2
2017-Jun-22 04:01N 32°18' W 090°56'1 1.4
2017-Jun-22 03:30N 32°17' W 090°56'2 4.7
2017-Jun-22 03:01N 32°16' W 090°58'2 3.5
2017-Jun-22 02:31N 32°14' W 090°59'2 4.8
2017-Jun-22 02:01N 32°12' W 090°60'2 4.5
2017-Jun-22 01:31N 32°09' W 091°00'2 4.6
2017-Jun-22 01:01N 32°07' W 091°01'2 4.2
2017-Jun-22 00:30N 32°08' W 091°04'2 3.1
2017-Jun-22 00:01N 32°08' W 091°06'2 3.8
2017-Jun-21 23:31N 32°06' W 091°06'3 5.1
2017-Jun-21 23:01N 32°04' W 091°04'2 4.5
2017-Jun-21 22:30N 32°02' W 091°04'7 4.6
2017-Jun-21 20:54N 31°58' W 091°11'  
2017-Jun-16 18:27N 31°58' W 091°11'5 8.4
2017-Jun-16 17:48N 31°60' W 091°05'3 9.7
2017-Jun-16 17:27N 32°03' W 091°03'4 8.3
2017-Jun-16 17:00N 32°06' W 091°06'2 4.8
2017-Jun-16 16:30N 32°08' W 091°04'4 7.2
2017-Jun-16 16:00N 32°09' W 091°00'5 9.6
2017-Jun-16 15:30N 32°14' W 090°59'5 9.1
2017-Jun-16 15:00N 32°18' W 090°56'3 6.4
2017-Jun-16 14:30N 32°21' W 090°56'7 7.4
2017-Jun-16 13:30N 32°26' W 091°02'5 9.6
2017-Jun-16 13:00N 32°29' W 091°07'5 9.4
2017-Jun-16 12:30N 32°34' W 091°06'6 8.3
2017-Jun-16 11:45N 32°39' W 091°09'  

Dump ship's entire track history